sensor_id;sensor_type;location;lat;lon;timestamp;temperature;humidity
52381;DHT22;38310;52.796;6.942;2022-10-16T00:02:00;13.10;99.90
52381;DHT22;38310;52.796;6.942;2022-10-16T00:04:30;13.20;99.90
52381;DHT22;38310;52.796;6.942;2022-10-16T00:06:56;13.30;99.90
52381;DHT22;38310;52.796;6.942;2022-10-16T00:09:22;13.20;99.90
52381;DHT22;38310;52.796;6.942;2022-10-16T00:11:47;13.30;99.90
52381;DHT22;38310;52.796;6.942;2022-10-16T00:14:15;13.20;99.90
52381;DHT22;38310;52.796;6.942;2022-10-16T00:16:41;13.20;99.90
52381;DHT22;38310;52.796;6.942;2022-10-16T00:19:07;13.20;99.90
52381;DHT22;38310;52.796;6.942;2022-10-16T00:21:33;13.20;99.90
52381;DHT22;38310;52.796;6.942;2022-10-16T00:24:02;13.20;99.90
52381;DHT22;38310;52.796;6.942;2022-10-16T00:26:30;13.20;99.90
52381;DHT22;38310;52.796;6.942;2022-10-16T00:28:56;13.20;99.90
52381;DHT22;38310;52.796;6.942;2022-10-16T00:31:22;13.20;99.90
52381;DHT22;38310;52.796;6.942;2022-10-16T00:33:48;13.20;99.90
52381;DHT22;38310;52.796;6.942;2022-10-16T00:36:18;13.20;99.90
52381;DHT22;38310;52.796;6.942;2022-10-16T00:38:44;13.20;99.90
52381;DHT22;38310;52.796;6.942;2022-10-16T00:41:15;13.20;99.90
52381;DHT22;38310;52.796;6.942;2022-10-16T00:48:52;13.20;99.90
52381;DHT22;38310;52.796;6.942;2022-10-16T00:51:25;13.20;99.90
52381;DHT22;38310;52.796;6.942;2022-10-16T00:53:54;13.20;99.90
52381;DHT22;38310;52.796;6.942;2022-10-16T00:56:20;13.20;99.90
52381;DHT22;38310;52.796;6.942;2022-10-16T00:58:46;13.20;99.90
52381;DHT22;38310;52.796;6.942;2022-10-16T01:01:12;13.10;99.90
52381;DHT22;38310;52.796;6.942;2022-10-16T01:03:37;13.10;99.90
52381;DHT22;38310;52.796;6.942;2022-10-16T01:14:57;13.00;99.90
52381;DHT22;38310;52.796;6.942;2022-10-16T01:18:05;13.10;99.90
52381;DHT22;38310;52.796;6.942;2022-10-16T01:20:37;13.00;99.90
52381;DHT22;38310;52.796;6.942;2022-10-16T01:26:20;13.00;99.90
52381;DHT22;38310;52.796;6.942;2022-10-16T01:31:32;12.90;99.90
52381;DHT22;38310;52.796;6.942;2022-10-16T01:34:16;12.90;99.90
52381;DHT22;38310;52.796;6.942;2022-10-16T01:36:53;13.40;99.90
52381;DHT22;38310;52.796;6.942;2022-10-16T01:39:24;12.90;99.90
52381;DHT22;38310;52.796;6.942;2022-10-16T01:42:06;12.90;99.90
52381;DHT22;38310;52.796;6.942;2022-10-16T01:44:34;12.90;99.90
52381;DHT22;38310;52.796;6.942;2022-10-16T01:47:02;12.90;99.90
52381;DHT22;38310;52.796;6.942;2022-10-16T01:49:33;12.90;99.90
52381;DHT22;38310;52.796;6.942;2022-10-16T01:52:02;12.80;99.90
52381;DHT22;38310;52.796;6.942;2022-10-16T01:54:31;12.80;99.90
52381;DHT22;38310;52.796;6.942;2022-10-16T01:56:58;12.70;99.90
52381;DHT22;38310;52.796;6.942;2022-10-16T01:59:26;12.70;99.90
52381;DHT22;38310;52.796;6.942;2022-10-16T02:01:56;12.70;99.90
52381;DHT22;38310;52.796;6.942;2022-10-16T02:04:29;12.60;99.90
52381;DHT22;38310;52.796;6.942;2022-10-16T02:06:57;12.60;99.90
52381;DHT22;38310;52.796;6.942;2022-10-16T02:09:23;12.60;99.90
52381;DHT22;38310;52.796;6.942;2022-10-16T02:11:50;12.60;99.90
52381;DHT22;38310;52.796;6.942;2022-10-16T02:14:18;12.60;99.90
52381;DHT22;38310;52.796;6.942;2022-10-16T02:16:45;12.70;99.90
52381;DHT22;38310;52.796;6.942;2022-10-16T02:19:16;12.70;99.90
52381;DHT22;38310;52.796;6.942;2022-10-16T02:24:51;12.60;99.90
52381;DHT22;38310;52.796;6.942;2022-10-16T02:29:58;12.70;99.90
52381;DHT22;38310;52.796;6.942;2022-10-16T02:32:30;12.80;99.90
52381;DHT22;38310;52.796;6.942;2022-10-16T02:34:57;12.70;99.90
52381;DHT22;38310;52.796;6.942;2022-10-16T02:37:24;12.70;99.90
52381;DHT22;38310;52.796;6.942;2022-10-16T02:39:51;12.70;99.90
52381;DHT22;38310;52.796;6.942;2022-10-16T02:42:18;12.70;99.90
52381;DHT22;38310;52.796;6.942;2022-10-16T02:44:44;12.70;99.90
52381;DHT22;38310;52.796;6.942;2022-10-16T02:47:09;12.70;99.90
52381;DHT22;38310;52.796;6.942;2022-10-16T02:49:35;12.70;99.90
52381;DHT22;38310;52.796;6.942;2022-10-16T02:52:01;12.70;99.90
52381;DHT22;38310;52.796;6.942;2022-10-16T02:54:27;12.70;99.90
52381;DHT22;38310;52.796;6.942;2022-10-16T02:56:52;12.80;99.90
52381;DHT22;38310;52.796;6.942;2022-10-16T02:59:18;12.80;99.90
52381;DHT22;38310;52.796;6.942;2022-10-16T03:01:44;12.90;99.90
52381;DHT22;38310;52.796;6.942;2022-10-16T03:04:09;12.90;99.90
52381;DHT22;38310;52.796;6.942;2022-10-16T03:06:35;12.90;99.90
52381;DHT22;38310;52.796;6.942;2022-10-16T03:09:01;12.90;99.90
52381;DHT22;38310;52.796;6.942;2022-10-16T03:11:27;13.00;99.90
52381;DHT22;38310;52.796;6.942;2022-10-16T03:13:53;13.00;99.90
52381;DHT22;38310;52.796;6.942;2022-10-16T03:16:19;13.00;99.90
52381;DHT22;38310;52.796;6.942;2022-10-16T03:18:48;13.00;99.90
52381;DHT22;38310;52.796;6.942;2022-10-16T03:21:14;13.00;99.90
52381;DHT22;38310;52.796;6.942;2022-10-16T03:23:39;13.00;99.90
52381;DHT22;38310;52.796;6.942;2022-10-16T03:26:05;13.00;99.90
52381;DHT22;38310;52.796;6.942;2022-10-16T03:28:31;13.00;99.90
52381;DHT22;38310;52.796;6.942;2022-10-16T03:30:56;13.00;99.90
52381;DHT22;38310;52.796;6.942;2022-10-16T03:33:22;13.10;99.90
52381;DHT22;38310;52.796;6.942;2022-10-16T03:35:52;13.10;99.90
52381;DHT22;38310;52.796;6.942;2022-10-16T03:38:19;13.10;99.90
52381;DHT22;38310;52.796;6.942;2022-10-16T03:40:44;13.10;99.90
52381;DHT22;38310;52.796;6.942;2022-10-16T03:43:10;13.10;99.90
52381;DHT22;38310;52.796;6.942;2022-10-16T03:45:36;13.20;99.90
52381;DHT22;38310;52.796;6.942;2022-10-16T03:48:02;13.20;99.90
52381;DHT22;38310;52.796;6.942;2022-10-16T03:50:29;13.20;99.90
52381;DHT22;38310;52.796;6.942;2022-10-16T03:52:55;13.20;99.90
52381;DHT22;38310;52.796;6.942;2022-10-16T03:55:20;13.20;99.90
52381;DHT22;38310;52.796;6.942;2022-10-16T03:57:46;13.20;99.90
52381;DHT22;38310;52.796;6.942;2022-10-16T04:00:12;13.20;99.90
52381;DHT22;38310;52.796;6.942;2022-10-16T04:02:38;13.20;99.90
52381;DHT22;38310;52.796;6.942;2022-10-16T04:05:05;13.20;99.90
52381;DHT22;38310;52.796;6.942;2022-10-16T04:07:31;13.20;99.90
52381;DHT22;38310;52.796;6.942;2022-10-16T04:09:56;13.20;99.90
52381;DHT22;38310;52.796;6.942;2022-10-16T04:12:25;13.20;99.90
52381;DHT22;38310;52.796;6.942;2022-10-16T04:14:51;13.20;99.90
52381;DHT22;38310;52.796;6.942;2022-10-16T04:17:16;13.20;99.90
52381;DHT22;38310;52.796;6.942;2022-10-16T04:19:42;13.20;99.90
52381;DHT22;38310;52.796;6.942;2022-10-16T04:22:08;13.20;99.90
52381;DHT22;38310;52.796;6.942;2022-10-16T04:24:33;13.20;99.90
52381;DHT22;38310;52.796;6.942;2022-10-16T04:26:59;13.20;99.90
52381;DHT22;38310;52.796;6.942;2022-10-16T04:29:25;13.20;99.90
52381;DHT22;38310;52.796;6.942;2022-10-16T04:31:50;13.20;99.90
52381;DHT22;38310;52.796;6.942;2022-10-16T04:34:16;13.10;99.90
52381;DHT22;38310;52.796;6.942;2022-10-16T04:36:42;13.10;99.90
52381;DHT22;38310;52.796;6.942;2022-10-16T04:39:08;13.10;99.90
52381;DHT22;38310;52.796;6.942;2022-10-16T04:41:33;13.10;99.90
52381;DHT22;38310;52.796;6.942;2022-10-16T04:43:59;13.10;99.90
52381;DHT22;38310;52.796;6.942;2022-10-16T04:46:25;13.10;99.90
52381;DHT22;38310;52.796;6.942;2022-10-16T04:48:50;13.10;99.90
52381;DHT22;38310;52.796;6.942;2022-10-16T04:51:16;13.10;99.90
52381;DHT22;38310;52.796;6.942;2022-10-16T04:53:42;13.00;99.90
52381;DHT22;38310;52.796;6.942;2022-10-16T04:56:07;13.00;99.90
52381;DHT22;38310;52.796;6.942;2022-10-16T04:58:33;13.10;99.90
52381;DHT22;38310;52.796;6.942;2022-10-16T05:00:59;13.10;99.90
52381;DHT22;38310;52.796;6.942;2022-10-16T05:03:24;13.00;99.90
52381;DHT22;38310;52.796;6.942;2022-10-16T05:05:50;13.10;99.90
52381;DHT22;38310;52.796;6.942;2022-10-16T05:08:17;13.10;99.90
52381;DHT22;38310;52.796;6.942;2022-10-16T05:10:43;13.00;99.90
52381;DHT22;38310;52.796;6.942;2022-10-16T05:13:10;13.00;99.90
52381;DHT22;38310;52.796;6.942;2022-10-16T05:15:36;13.10;99.90
52381;DHT22;38310;52.796;6.942;2022-10-16T05:18:02;13.10;99.90
52381;DHT22;38310;52.796;6.942;2022-10-16T05:20:28;13.00;99.90
52381;DHT22;38310;52.796;6.942;2022-10-16T05:22:54;13.00;99.90
52381;DHT22;38310;52.796;6.942;2022-10-16T05:25:19;13.00;99.90
52381;DHT22;38310;52.796;6.942;2022-10-16T05:27:49;13.00;99.90
52381;DHT22;38310;52.796;6.942;2022-10-16T05:30:16;13.00;99.90
52381;DHT22;38310;52.796;6.942;2022-10-16T05:32:46;12.90;99.90
52381;DHT22;38310;52.796;6.942;2022-10-16T05:35:12;12.90;99.90
52381;DHT22;38310;52.796;6.942;2022-10-16T05:37:37;12.90;99.90
52381;DHT22;38310;52.796;6.942;2022-10-16T05:40:04;12.90;99.90
52381;DHT22;38310;52.796;6.942;2022-10-16T05:42:30;12.90;99.90
52381;DHT22;38310;52.796;6.942;2022-10-16T05:44:56;12.90;99.90
52381;DHT22;38310;52.796;6.942;2022-10-16T05:47:21;12.80;99.90
52381;DHT22;38310;52.796;6.942;2022-10-16T05:49:47;12.80;99.90
52381;DHT22;38310;52.796;6.942;2022-10-16T05:52:13;12.80;99.90
52381;DHT22;38310;52.796;6.942;2022-10-16T05:54:38;12.80;99.90
52381;DHT22;38310;52.796;6.942;2022-10-16T05:57:04;12.80;99.90
52381;DHT22;38310;52.796;6.942;2022-10-16T05:59:31;12.80;99.90
52381;DHT22;38310;52.796;6.942;2022-10-16T06:01:57;12.70;99.90
52381;DHT22;38310;52.796;6.942;2022-10-16T06:04:23;12.70;99.90
52381;DHT22;38310;52.796;6.942;2022-10-16T06:06:48;12.80;99.90
52381;DHT22;38310;52.796;6.942;2022-10-16T06:09:14;12.80;99.90
52381;DHT22;38310;52.796;6.942;2022-10-16T06:11:40;12.80;99.90
52381;DHT22;38310;52.796;6.942;2022-10-16T06:14:06;12.80;99.90
52381;DHT22;38310;52.796;6.942;2022-10-16T06:16:35;12.80;99.90
52381;DHT22;38310;52.796;6.942;2022-10-16T06:19:02;12.80;99.90
52381;DHT22;38310;52.796;6.942;2022-10-16T06:21:31;12.90;99.90
52381;DHT22;38310;52.796;6.942;2022-10-16T06:23:58;12.90;99.90
52381;DHT22;38310;52.796;6.942;2022-10-16T06:26:26;12.90;99.90
52381;DHT22;38310;52.796;6.942;2022-10-16T06:28:55;12.90;99.90
52381;DHT22;38310;52.796;6.942;2022-10-16T06:31:21;12.90;99.90
52381;DHT22;38310;52.796;6.942;2022-10-16T06:33:50;12.90;99.90
52381;DHT22;38310;52.796;6.942;2022-10-16T06:36:17;12.90;99.90
52381;DHT22;38310;52.796;6.942;2022-10-16T06:38:43;12.90;99.90
52381;DHT22;38310;52.796;6.942;2022-10-16T06:41:15;12.90;99.90
52381;DHT22;38310;52.796;6.942;2022-10-16T06:43:42;12.90;99.90
52381;DHT22;38310;52.796;6.942;2022-10-16T06:46:11;13.00;99.90
52381;DHT22;38310;52.796;6.942;2022-10-16T06:48:37;13.00;99.90
52381;DHT22;38310;52.796;6.942;2022-10-16T06:51:06;13.00;99.90
52381;DHT22;38310;52.796;6.942;2022-10-16T06:53:34;13.00;99.90
52381;DHT22;38310;52.796;6.942;2022-10-16T06:56:21;13.00;99.90
52381;DHT22;38310;52.796;6.942;2022-10-16T06:58:47;13.00;99.90
52381;DHT22;38310;52.796;6.942;2022-10-16T07:01:14;13.00;99.90
52381;DHT22;38310;52.796;6.942;2022-10-16T07:03:42;13.00;99.90
52381;DHT22;38310;52.796;6.942;2022-10-16T07:06:09;13.10;99.90
52381;DHT22;38310;52.796;6.942;2022-10-16T07:08:37;13.10;99.90
52381;DHT22;38310;52.796;6.942;2022-10-16T07:11:06;13.10;99.90
52381;DHT22;38310;52.796;6.942;2022-10-16T07:13:36;13.10;99.90
52381;DHT22;38310;52.796;6.942;2022-10-16T07:16:14;13.80;99.90
52381;DHT22;38310;52.796;6.942;2022-10-16T07:18:41;13.20;99.90
52381;DHT22;38310;52.796;6.942;2022-10-16T07:21:19;13.30;99.90
52381;DHT22;38310;52.796;6.942;2022-10-16T07:23:55;13.30;99.90
52381;DHT22;38310;52.796;6.942;2022-10-16T07:26:22;13.30;99.90
52381;DHT22;38310;52.796;6.942;2022-10-16T07:28:48;13.40;99.90
52381;DHT22;38310;52.796;6.942;2022-10-16T07:31:15;13.40;99.90
52381;DHT22;38310;52.796;6.942;2022-10-16T07:33:42;13.40;99.90
52381;DHT22;38310;52.796;6.942;2022-10-16T07:36:10;13.40;99.90
52381;DHT22;38310;52.796;6.942;2022-10-16T07:38:35;13.40;99.90
52381;DHT22;38310;52.796;6.942;2022-10-16T07:41:06;13.40;99.90
52381;DHT22;38310;52.796;6.942;2022-10-16T07:43:33;13.50;99.90
52381;DHT22;38310;52.796;6.942;2022-10-16T07:45:59;13.50;99.90
52381;DHT22;38310;52.796;6.942;2022-10-16T07:48:28;13.70;99.90
52381;DHT22;38310;52.796;6.942;2022-10-16T07:51:02;13.70;99.90
52381;DHT22;38310;52.796;6.942;2022-10-16T07:53:28;13.80;99.90
52381;DHT22;38310;52.796;6.942;2022-10-16T07:56:02;13.80;99.90
52381;DHT22;38310;52.796;6.942;2022-10-16T07:58:28;13.80;99.90
52381;DHT22;38310;52.796;6.942;2022-10-16T08:00:55;13.80;99.90
52381;DHT22;38310;52.796;6.942;2022-10-16T08:03:21;13.90;99.90
52381;DHT22;38310;52.796;6.942;2022-10-16T08:05:47;13.80;99.90
52381;DHT22;38310;52.796;6.942;2022-10-16T08:08:14;13.90;99.90
52381;DHT22;38310;52.796;6.942;2022-10-16T08:10:40;13.90;99.90
52381;DHT22;38310;52.796;6.942;2022-10-16T08:13:06;13.90;99.90
52381;DHT22;38310;52.796;6.942;2022-10-16T08:15:31;13.90;99.90
52381;DHT22;38310;52.796;6.942;2022-10-16T08:18:02;13.90;99.90
52381;DHT22;38310;52.796;6.942;2022-10-16T08:20:29;14.00;99.90
52381;DHT22;38310;52.796;6.942;2022-10-16T08:22:55;14.00;99.90
52381;DHT22;38310;52.796;6.942;2022-10-16T08:25:22;14.10;99.90
52381;DHT22;38310;52.796;6.942;2022-10-16T08:27:48;14.10;99.90
52381;DHT22;38310;52.796;6.942;2022-10-16T08:30:14;14.20;99.90
52381;DHT22;38310;52.796;6.942;2022-10-16T08:32:40;14.20;99.90
52381;DHT22;38310;52.796;6.942;2022-10-16T08:35:08;14.20;99.90
52381;DHT22;38310;52.796;6.942;2022-10-16T08:37:35;14.30;99.90
52381;DHT22;38310;52.796;6.942;2022-10-16T08:40:01;14.30;99.90
52381;DHT22;38310;52.796;6.942;2022-10-16T08:50:57;14.60;99.90
52381;DHT22;38310;52.796;6.942;2022-10-16T08:56:22;14.70;99.90
52381;DHT22;38310;52.796;6.942;2022-10-16T08:58:48;14.80;99.90
52381;DHT22;38310;52.796;6.942;2022-10-16T09:01:16;14.80;99.90
52381;DHT22;38310;52.796;6.942;2022-10-16T09:06:40;14.90;99.90
52381;DHT22;38310;52.796;6.942;2022-10-16T09:12:09;15.00;99.90
52381;DHT22;38310;52.796;6.942;2022-10-16T09:15:13;15.00;99.90
52381;DHT22;38310;52.796;6.942;2022-10-16T09:17:53;15.10;99.90
52381;DHT22;38310;52.796;6.942;2022-10-16T09:22:48;15.30;99.90
52381;DHT22;38310;52.796;6.942;2022-10-16T09:25:20;15.30;99.90
52381;DHT22;38310;52.796;6.942;2022-10-16T09:27:48;15.30;99.90
52381;DHT22;38310;52.796;6.942;2022-10-16T09:30:17;15.50;99.90
52381;DHT22;38310;52.796;6.942;2022-10-16T09:32:44;15.50;99.90
52381;DHT22;38310;52.796;6.942;2022-10-16T09:35:15;15.60;99.90
52381;DHT22;38310;52.796;6.942;2022-10-16T09:37:44;15.70;99.90
52381;DHT22;38310;52.796;6.942;2022-10-16T09:40:31;15.80;99.90
52381;DHT22;38310;52.796;6.942;2022-10-16T09:45:54;15.90;99.90
52381;DHT22;38310;52.796;6.942;2022-10-16T09:48:21;16.00;99.90
52381;DHT22;38310;52.796;6.942;2022-10-16T09:50:59;16.10;99.90
52381;DHT22;38310;52.796;6.942;2022-10-16T09:53:38;16.20;99.90
52381;DHT22;38310;52.796;6.942;2022-10-16T09:56:05;16.30;99.90
52381;DHT22;38310;52.796;6.942;2022-10-16T09:58:32;16.40;99.90
52381;DHT22;38310;52.796;6.942;2022-10-16T10:00:59;16.40;99.90
52381;DHT22;38310;52.796;6.942;2022-10-16T10:03:39;16.50;99.90
52381;DHT22;38310;52.796;6.942;2022-10-16T10:08:57;16.60;99.90
52381;DHT22;38310;52.796;6.942;2022-10-16T10:11:44;16.50;99.90
52381;DHT22;38310;52.796;6.942;2022-10-16T10:14:30;16.60;99.90
52381;DHT22;38310;52.796;6.942;2022-10-16T10:17:17;16.80;99.90
52381;DHT22;38310;52.796;6.942;2022-10-16T10:19:49;16.90;99.90
52381;DHT22;38310;52.796;6.942;2022-10-16T10:22:42;16.80;99.90
52381;DHT22;38310;52.796;6.942;2022-10-16T10:30:44;17.00;99.90
52381;DHT22;38310;52.796;6.942;2022-10-16T10:36:21;17.20;99.90
52381;DHT22;38310;52.796;6.942;2022-10-16T10:38:52;17.30;99.90
52381;DHT22;38310;52.796;6.942;2022-10-16T10:50:14;17.50;99.90
52381;DHT22;38310;52.796;6.942;2022-10-16T10:52:45;17.50;99.90
52381;DHT22;38310;52.796;6.942;2022-10-16T11:00:59;17.50;99.90
52381;DHT22;38310;52.796;6.942;2022-10-16T11:11:38;17.80;99.90
52381;DHT22;38310;52.796;6.942;2022-10-16T11:14:23;17.70;99.90
52381;DHT22;38310;52.796;6.942;2022-10-16T11:17:00;17.40;99.90
52381;DHT22;38310;52.796;6.942;2022-10-16T11:19:39;17.40;99.90
52381;DHT22;38310;52.796;6.942;2022-10-16T11:27:40;17.10;99.90
52381;DHT22;38310;52.796;6.942;2022-10-16T11:30:08;17.10;99.90
52381;DHT22;38310;52.796;6.942;2022-10-16T11:38:09;16.60;99.90
52381;DHT22;38310;52.796;6.942;2022-10-16T11:40:39;16.80;99.90
52381;DHT22;38310;52.796;6.942;2022-10-16T11:43:15;17.30;99.90
52381;DHT22;38310;52.796;6.942;2022-10-16T11:45:49;17.20;99.90
52381;DHT22;38310;52.796;6.942;2022-10-16T11:48:43;17.60;99.90
52381;DHT22;38310;52.796;6.942;2022-10-16T11:54:56;18.20;99.90
52381;DHT22;38310;52.796;6.942;2022-10-16T11:57:29;18.80;99.90
52381;DHT22;38310;52.796;6.942;2022-10-16T12:05:29;19.60;99.90
52381;DHT22;38310;52.796;6.942;2022-10-16T12:08:02;19.90;99.90
52381;DHT22;38310;52.796;6.942;2022-10-16T12:10:30;20.60;99.90
52381;DHT22;38310;52.796;6.942;2022-10-16T12:13:04;21.00;99.90
52381;DHT22;38310;52.796;6.942;2022-10-16T12:15:32;21.30;99.90
52381;DHT22;38310;52.796;6.942;2022-10-16T12:17:59;21.10;99.90
52381;DHT22;38310;52.796;6.942;2022-10-16T12:20:33;20.90;99.90
52381;DHT22;38310;52.796;6.942;2022-10-16T12:23:05;20.30;99.90
52381;DHT22;38310;52.796;6.942;2022-10-16T12:25:36;19.80;99.90
52381;DHT22;38310;52.796;6.942;2022-10-16T12:28:05;19.90;99.90
52381;DHT22;38310;52.796;6.942;2022-10-16T12:30:34;20.30;99.90
52381;DHT22;38310;52.796;6.942;2022-10-16T12:33:05;19.90;99.90
52381;DHT22;38310;52.796;6.942;2022-10-16T12:35:34;19.90;99.90
52381;DHT22;38310;52.796;6.942;2022-10-16T12:38:14;19.90;99.90
52381;DHT22;38310;52.796;6.942;2022-10-16T12:40:42;20.10;99.90
52381;DHT22;38310;52.796;6.942;2022-10-16T12:46:44;19.20;99.90
52381;DHT22;38310;52.796;6.942;2022-10-16T12:48:52;19.40;99.90
52381;DHT22;38310;52.796;6.942;2022-10-16T13:07:58;21.20;99.90
52381;DHT22;38310;52.796;6.942;2022-10-16T13:10:35;21.30;99.90
52381;DHT22;38310;52.796;6.942;2022-10-16T13:16:26;21.10;99.90
52381;DHT22;38310;52.796;6.942;2022-10-16T13:22:05;20.80;99.90
52381;DHT22;38310;52.796;6.942;2022-10-16T13:24:58;21.30;99.90
52381;DHT22;38310;52.796;6.942;2022-10-16T13:28:21;21.10;99.90
52381;DHT22;38310;52.796;6.942;2022-10-16T13:30:41;21.30;99.90
52381;DHT22;38310;52.796;6.942;2022-10-16T13:35:55;21.80;99.90
52381;DHT22;38310;52.796;6.942;2022-10-16T13:38:32;20.90;99.90
52381;DHT22;38310;52.796;6.942;2022-10-16T13:41:01;21.30;99.90
52381;DHT22;38310;52.796;6.942;2022-10-16T13:43:49;20.50;99.90
52381;DHT22;38310;52.796;6.942;2022-10-16T13:46:18;20.10;99.90
52381;DHT22;38310;52.796;6.942;2022-10-16T13:48:55;20.10;99.90
52381;DHT22;38310;52.796;6.942;2022-10-16T13:51:21;20.70;99.90
52381;DHT22;38310;52.796;6.942;2022-10-16T13:53:47;20.60;99.90
52381;DHT22;38310;52.796;6.942;2022-10-16T13:56:18;20.40;99.90
52381;DHT22;38310;52.796;6.942;2022-10-16T13:58:45;20.30;99.90
52381;DHT22;38310;52.796;6.942;2022-10-16T14:01:20;20.40;99.90
52381;DHT22;38310;52.796;6.942;2022-10-16T14:03:48;20.60;99.90
52381;DHT22;38310;52.796;6.942;2022-10-16T14:06:17;20.60;99.90
52381;DHT22;38310;52.796;6.942;2022-10-16T14:08:46;20.60;99.90
52381;DHT22;38310;52.796;6.942;2022-10-16T14:11:23;20.20;99.90
52381;DHT22;38310;52.796;6.942;2022-10-16T14:13:50;20.20;99.90
52381;DHT22;38310;52.796;6.942;2022-10-16T14:16:25;19.70;99.90
52381;DHT22;38310;52.796;6.942;2022-10-16T14:19:04;19.50;99.90
52381;DHT22;38310;52.796;6.942;2022-10-16T14:21:33;19.50;99.90
52381;DHT22;38310;52.796;6.942;2022-10-16T14:23:59;19.20;99.90
52381;DHT22;38310;52.796;6.942;2022-10-16T14:26:44;19.30;99.90
52381;DHT22;38310;52.796;6.942;2022-10-16T14:29:15;19.30;99.90
52381;DHT22;38310;52.796;6.942;2022-10-16T14:31:41;19.30;99.90
52381;DHT22;38310;52.796;6.942;2022-10-16T14:34:52;19.30;99.90
52381;DHT22;38310;52.796;6.942;2022-10-16T14:39:50;19.00;99.90
52381;DHT22;38310;52.796;6.942;2022-10-16T14:42:21;18.90;99.90
52381;DHT22;38310;52.796;6.942;2022-10-16T14:44:52;18.80;99.90
52381;DHT22;38310;52.796;6.942;2022-10-16T14:47:21;18.80;99.90
52381;DHT22;38310;52.796;6.942;2022-10-16T14:49:51;18.60;99.90
52381;DHT22;38310;52.796;6.942;2022-10-16T14:52:17;18.60;99.90
52381;DHT22;38310;52.796;6.942;2022-10-16T14:54:43;18.50;99.90
52381;DHT22;38310;52.796;6.942;2022-10-16T14:57:24;18.50;99.90
52381;DHT22;38310;52.796;6.942;2022-10-16T14:59:51;18.50;99.90
52381;DHT22;38310;52.796;6.942;2022-10-16T15:02:33;18.40;99.90
52381;DHT22;38310;52.796;6.942;2022-10-16T15:05:18;18.40;99.90
52381;DHT22;38310;52.796;6.942;2022-10-16T15:07:45;18.30;99.90
52381;DHT22;38310;52.796;6.942;2022-10-16T15:10:13;18.40;99.90
52381;DHT22;38310;52.796;6.942;2022-10-16T15:12:39;18.20;99.90
52381;DHT22;38310;52.796;6.942;2022-10-16T15:15:35;18.30;99.90
52381;DHT22;38310;52.796;6.942;2022-10-16T15:18:02;18.30;99.90
52381;DHT22;38310;52.796;6.942;2022-10-16T15:20:36;18.00;99.90
52381;DHT22;38310;52.796;6.942;2022-10-16T15:23:04;17.90;99.90
52381;DHT22;38310;52.796;6.942;2022-10-16T15:25:46;17.90;99.90
52381;DHT22;38310;52.796;6.942;2022-10-16T15:28:13;17.90;99.90
52381;DHT22;38310;52.796;6.942;2022-10-16T15:30:40;17.80;99.90
52381;DHT22;38310;52.796;6.942;2022-10-16T15:33:11;17.70;99.90
52381;DHT22;38310;52.796;6.942;2022-10-16T15:35:38;17.60;99.90
52381;DHT22;38310;52.796;6.942;2022-10-16T15:38:04;17.60;99.90
52381;DHT22;38310;52.796;6.942;2022-10-16T15:40:30;17.50;99.90
52381;DHT22;38310;52.796;6.942;2022-10-16T15:42:56;17.50;99.90
52381;DHT22;38310;52.796;6.942;2022-10-16T15:45:21;17.40;99.90
52381;DHT22;38310;52.796;6.942;2022-10-16T15:47:47;17.30;99.90
52381;DHT22;38310;52.796;6.942;2022-10-16T15:50:15;17.30;99.90
52381;DHT22;38310;52.796;6.942;2022-10-16T15:52:41;17.10;99.90
52381;DHT22;38310;52.796;6.942;2022-10-16T15:55:08;17.10;99.90
52381;DHT22;38310;52.796;6.942;2022-10-16T15:57:35;17.00;99.90
52381;DHT22;38310;52.796;6.942;2022-10-16T16:00:05;16.90;99.90
52381;DHT22;38310;52.796;6.942;2022-10-16T16:02:31;16.90;99.90
52381;DHT22;38310;52.796;6.942;2022-10-16T16:04:57;16.80;99.90
52381;DHT22;38310;52.796;6.942;2022-10-16T16:07:23;16.70;99.90
52381;DHT22;38310;52.796;6.942;2022-10-16T16:09:48;16.60;99.90
52381;DHT22;38310;52.796;6.942;2022-10-16T16:12:14;16.50;99.90
52381;DHT22;38310;52.796;6.942;2022-10-16T16:14:40;16.40;99.90
52381;DHT22;38310;52.796;6.942;2022-10-16T16:17:05;16.30;99.90
52381;DHT22;38310;52.796;6.942;2022-10-16T16:19:32;16.40;99.90
52381;DHT22;38310;52.796;6.942;2022-10-16T16:21:58;15.90;99.90
52381;DHT22;38310;52.796;6.942;2022-10-16T16:24:24;15.90;99.90
52381;DHT22;38310;52.796;6.942;2022-10-16T16:26:50;15.50;99.90
52381;DHT22;38310;52.796;6.942;2022-10-16T16:29:16;15.50;99.90
52381;DHT22;38310;52.796;6.942;2022-10-16T16:31:42;15.40;99.90
52381;DHT22;38310;52.796;6.942;2022-10-16T16:34:08;15.30;99.90
52381;DHT22;38310;52.796;6.942;2022-10-16T16:39:51;15.20;99.90
52381;DHT22;38310;52.796;6.942;2022-10-16T16:42:17;15.00;99.90
52381;DHT22;38310;52.796;6.942;2022-10-16T16:44:42;14.90;99.90
52381;DHT22;38310;52.796;6.942;2022-10-16T16:47:09;14.90;99.90
52381;DHT22;38310;52.796;6.942;2022-10-16T16:49:35;14.80;99.90
52381;DHT22;38310;52.796;6.942;2022-10-16T16:52:01;14.70;99.90
52381;DHT22;38310;52.796;6.942;2022-10-16T16:54:27;14.60;99.90
52381;DHT22;38310;52.796;6.942;2022-10-16T16:56:52;14.40;99.90
52381;DHT22;38310;52.796;6.942;2022-10-16T16:59:19;14.30;99.90
52381;DHT22;38310;52.796;6.942;2022-10-16T17:01:46;14.30;99.90
52381;DHT22;38310;52.796;6.942;2022-10-16T17:04:12;14.30;99.90
52381;DHT22;38310;52.796;6.942;2022-10-16T17:06:40;13.80;99.90
52381;DHT22;38310;52.796;6.942;2022-10-16T17:09:06;14.20;99.90
52381;DHT22;38310;52.796;6.942;2022-10-16T17:11:32;14.00;99.90
52381;DHT22;38310;52.796;6.942;2022-10-16T17:13:59;14.00;99.90
52381;DHT22;38310;52.796;6.942;2022-10-16T17:16:29;13.90;99.90
52381;DHT22;38310;52.796;6.942;2022-10-16T17:18:58;13.90;99.90
52381;DHT22;38310;52.796;6.942;2022-10-16T17:21:23;13.80;99.90
52381;DHT22;38310;52.796;6.942;2022-10-16T17:23:51;13.70;99.90
52381;DHT22;38310;52.796;6.942;2022-10-16T17:26:18;13.70;99.90
52381;DHT22;38310;52.796;6.942;2022-10-16T17:28:44;13.60;99.90
52381;DHT22;38310;52.796;6.942;2022-10-16T17:31:18;13.50;99.90
52381;DHT22;38310;52.796;6.942;2022-10-16T17:33:44;13.30;99.90
52381;DHT22;38310;52.796;6.942;2022-10-16T17:36:11;13.30;99.90
52381;DHT22;38310;52.796;6.942;2022-10-16T17:38:39;13.30;99.90
52381;DHT22;38310;52.796;6.942;2022-10-16T17:41:22;13.20;99.90
52381;DHT22;38310;52.796;6.942;2022-10-16T17:43:49;13.10;99.90
52381;DHT22;38310;52.796;6.942;2022-10-16T17:46:18;13.00;99.90
52381;DHT22;38310;52.796;6.942;2022-10-16T17:48:46;13.00;99.90
52381;DHT22;38310;52.796;6.942;2022-10-16T17:51:16;12.90;99.90
52381;DHT22;38310;52.796;6.942;2022-10-16T17:53:42;12.80;99.90
52381;DHT22;38310;52.796;6.942;2022-10-16T17:56:13;12.80;99.90
52381;DHT22;38310;52.796;6.942;2022-10-16T17:58:39;12.70;99.90
52381;DHT22;38310;52.796;6.942;2022-10-16T18:01:17;12.60;99.90